ADDS TAF Data INFO
IDs: Format: Raw Decoded Include METARs

Data at: 0331 UTC 26 Mar 2017

Region: TOP
KATL 260330Z 2604/2706 13007KT P6SM SCT070 BKN250
  FM260500 27014G20KT 6SM SHRA BKN045
  FM260600 VRB03KT 6SM -SHRA OVC035
  FM260900 16008KT 6SM -SHRA SCT012 BKN025
  FM261500 17012KT P6SM VCSH BKN025
  FM261800 17012KT P6SM VCSH BKN035
  FM270000 16007KT P6SM BKN035


KBOS 260210Z 2602/2706 34005KT P6SM FEW250
  FM261300 06008KT P6SM SCT025
  FM261500 08008KT P6SM BKN050
  FM261800 10007KT P6SM OVC050
  FM262300 11006KT P6SM VCSH OVC050


KBWI 260252Z 2603/2706 09013G25KT P6SM OVC050
  FM260500 08013G22KT P6SM OVC015
  FM260800 08012G20KT P6SM SCT005 OVC008
  FM261500 09012KT 4SM -DZ SCT005 OVC008
  FM262100 10012KT 3SM -DZ BKN015
  FM270000 09009KT 4SM -RADZ BKN008
  FM270500 13006KT 4SM -RADZ OVC008


KCLE 260257Z 2603/2706 05011KT P6SM SCT060 BKN100
  FM260500 08008KT P6SM OVC025
  TEMPO 2606/2610 OVC015
  FM261700 17010KT P6SM VCSH SCT008 OVC020
  FM262100 17012KT 4SM -SHRA OVC010
  PROB30 2621/2703 2SM -TSRA OVC010CB


KCLT 252337Z 2600/2624 18007KT P6SM BKN060 BKN250
  FM260300 16006KT P6SM SCT060 BKN250
  FM261200 15005KT P6SM BKN015
  PROB30 2614/2618 4SM -SHRA OVC007
  FM261800 17011G19KT P6SM VCSH BKN035
  PROB30 2618/2624 4SM -SHRA OVC015


KCVG 260240Z 2603/2706 15006KT P6SM VCSH OVC080
  TEMPO 2603/2604 -SHRA
  FM260800 16006KT 6SM -SHRA OVC050
  FM261500 18009KT 4SM -SHRA OVC025
  FM261800 20008KT P6SM -SHRA VCTS OVC040CB
  FM262300 21007KT P6SM BKN050


KDCA 252328Z 2600/2624 14005KT P6SM BKN080
  FM260400 11008KT P6SM OVC050
  FM260800 09009KT P6SM OVC015
  FM261000 08009KT P6SM SCT005 OVC008
  FM261500 10009KT 4SM -DZ BKN008
  FM262100 10010G18KT 4SM -DZ BKN015


KDEN 260225Z 2602/2706 12013KT P6SM FEW150 BKN220
  FM260500 17010KT P6SM SCT060 BKN100
  FM261000 25007KT P6SM VCSH BKN050 OVC070
  FM261300 35011KT P6SM VCSH BKN030 OVC050
  TEMPO 2614/2618 4SM -SHRA BKN015 OVC025
  FM261800 01014G24KT P6SM BKN020 OVC050
  FM262200 03009KT P6SM SCT040 BKN060
  FM270500 20007KT P6SM FEW060 BKN150


KDFW 260307Z 2603/2706 VRB04KT P6SM FEW300
  FM260700 15006KT P6SM FEW250
  FM261300 16012KT P6SM SCT020 BKN120
  TEMPO 2613/2616 BKN020
  FM261600 17014G24KT P6SM BKN035 BKN250
  FM262100 18015G25KT P6SM VCTS SCT035CB BKN120
  FM270000 18017KT P6SM SCT035 BKN120


KDTW 260251Z 2603/2706 08009KT P6SM BKN014 OVC022
  FM260600 08008KT 5SM BR SCT008 OVC014
  FM260800 09007KT 2SM BR OVC008
  FM261500 11008KT 5SM BR BKN012
  FM261700 13010KT 5SM -SHRA SCT012 OVC022
  FM270100 16008KT 3SM -SHRA BR OVC012


KEWR 260245Z 2603/2706 02008KT P6SM BKN015 OVC020
  FM260700 04009KT P6SM OVC020
  FM261100 05011KT P6SM SCT025 OVC035
  FM261300 06012KT 6SM -RA OVC025
  FM262000 07012KT 5SM -RA BR SCT008 OVC015
  FM270200 07009KT 3SM -DZ BR SCT004 OVC008


KFLL 260303Z 2603/2624 10013KT P6SM VCSH SCT025 BKN050 BKN250
  TEMPO 2603/2605 5SM RA BKN025
  FM260600 10008KT P6SM SCT050 SCT120
  FM261400 09013KT P6SM SCT050 SCT250


KIAD 252328Z 2600/2706 12004KT P6SM OVC050
  FM260400 11005KT P6SM OVC045
  FM260700 09007KT P6SM OVC015
  FM261500 11008KT 3SM -DZ SCT005 OVC008
  FM262100 11008KT 3SM -DZ OVC015
  FM270000 11008KT 3SM -RADZ BKN008
  FM270500 15006KT 3SM -RADZ OVC010


KIAH 260308Z 2603/2706 00000KT P6SM SKC
  FM260900 13002KT 5SM BR SCT010
  TEMPO 2611/2614 BKN010
  FM261400 16008KT P6SM SCT025
  TEMPO 2615/2617 BKN022
  FM261700 16012KT P6SM SCT035
  FM262100 16012G22KT P6SM BKN035
  FM270300 16010KT P6SM BKN025


KJFK 260245Z 2603/2706 07007KT P6SM BKN015 OVC020
  FM260700 06011KT P6SM OVC020
  FM261100 07011KT P6SM SCT025 OVC035
  FM261300 08013KT 6SM -RA OVC025
  FM262000 09013G18KT 5SM -RA BR SCT008 OVC015
  FM270200 09010KT 3SM -DZ BR SCT004 OVC008


KLAS 260246Z 2603/2624 34007KT P6SM SCT100
  FM260600 22006KT P6SM FEW100 FEW250
  FM261700 07006KT P6SM FEW100 BKN250


KLAX 260258Z 2603/2706 24015G20KT P6SM SCT015 BKN060
  FM260400 26008KT P6SM SCT015 SCT150
  FM260900 VRB03KT P6SM BKN017 BKN150
  FM262000 26012KT P6SM SCT022 BKN150


KLGA 260245Z 2603/2624 05009KT P6SM BKN015 OVC020
  FM260700 05010KT P6SM OVC020
  FM261000 06011KT P6SM SCT025 OVC035
  FM261300 06013KT 6SM -RA OVC025
  FM262000 08012G17KT 5SM -RA BR SCT008 OVC015


KMCO 260253Z 2603/2624 09006KT P6SM FEW040
  FM260900 11003KT P6SM MIFG SCT020
  TEMPO 2609/2613 5SM BR
  FM261300 11008KT P6SM SCT040


KMDW 260259Z 2603/2624 01008KT 3SM -SHRA BR SCT006 SCT015 BKN035
  TEMPO 2603/2605 3SM -RA BR BKN006
  FM260500 09008KT 2SM -RADZ BR OVC003
  FM261500 14004KT 3SM -RADZ BR OVC006
  FM261900 20007KT 5SM BR VCSH BKN015 OVC024


KMEM 260252Z 2603/2624 21005KT P6SM BKN040 BKN120
  FM260900 22004KT P6SM BKN025
  FM261600 20009KT P6SM SCT120 BKN250


KMIA 260303Z 2603/2624 09007KT P6SM FEW025 SCT050 SCT200
  FM261400 09011KT P6SM SCT050 SCT250


KMSP 260300Z 2603/2706 06010KT P6SM OVC015
  FM260500 04007KT 5SM -RA BR OVC009
  FM260900 03007KT 3SM -RADZ BR SCT003 OVC005
  FM261800 03006KT 6SM BR OVC012
  FM270000 35005KT P6SM OVC018


KORD 260259Z 2603/2706 03008KT 3SM -SHRA BR OVC004
  FM260500 09008KT 2SM -RADZ BR OVC003
  FM261500 12004KT 3SM -RADZ BR OVC006
  FM261900 20007KT 5SM BR VCSH BKN015 OVC024
  FM270400 25005KT 5SM BR OVC009


KPDX 260247Z 2603/2624 28007KT P6SM VCSH BKN040 BKN080 BKN200
  FM260500 VRB03KT P6SM FEW040 SCT080 BKN200
  FM261200 10007KT P6SM VCSH BKN040 OVC080
  FM261500 10013KT P6SM -RA SCT025 OVC040
  FM262200 17008KT 6SM -RA BR BKN025 OVC040


KPHL 260307Z 2603/2706 07012KT P6SM SCT020 BKN200
  FM260600 06010KT P6SM VCSH OVC020
  FM260900 06010KT 6SM -DZ BR OVC008
  FM261600 07012KT P6SM OVC010
  FM262100 07012KT 3SM -SHRA OVC010
  FM270000 08008KT 4SM BR OVC008


KPHX 260247Z 2603/2624 28008KT P6SM SCT200
  TEMPO 2603/2604 28012G17KT
  FM260800 10006KT P6SM SKC
  FM262000 26008KT P6SM FEW110 SCT250


KPIT 260255Z 2603/2706 08006KT P6SM BKN100
  FM261600 14012KT P6SM VCSH OVC050
  FM262300 15010KT 3SM -SHRA BR OVC025
  FM270400 18005KT P6SM -SHRA OVC015


KSAN 260301Z 2603/2706 30006KT P6SM VCSH BKN020
  FM261200 VRB06KT P6SM BKN020
  FM262000 29009KT P6SM SKC
  FM270200 VRB04KT P6SM SCT015


KSEA 260205Z 2602/2706 19005KT P6SM FEW035 SCT050 OVC200
  FM260600 VRB03KT P6SM FEW080 OVC150
  FM261200 12006KT P6SM SCT080 OVC120
  FM261800 13008KT P6SM -RA BKN045 OVC070
  FM270200 18010KT P6SM -RA BKN030 OVC045


KSFO 260302Z 2603/2706 27015KT P6SM FEW040 SCT250
  FM260800 25009KT P6SM FEW015 SCT030 BKN150
  TEMPO 2611/2615 BKN015 OVC250
  FM261800 17004KT P6SM SCT040 OVC250
  FM270200 16007KT P6SM BKN030 OVC150


KSLC 260307Z 2603/2706 34005KT P6SM SCT040 BKN080
  FM261000 15006KT 6SM BCFG SCT008
  FM261400 14006KT P6SM SCT120
  FM262100 33007KT P6SM SCT120


KSTL 260315Z 2603/2706 19007KT P6SM SCT020 BKN080
  FM260600 20006KT P6SM BKN020
  FM261100 22007KT 6SM BR BKN010
  FM261600 23009KT P6SM BKN020
  FM262100 24009KT P6SM BKN035
  FM270100 VRB04KT P6SM SCT040 BKN080


KTPA 260307Z 2603/2624 10005KT P6SM FEW060 FEW250
  FM261400 14007KT P6SM SCT045 SCT150
  FM261900 26008KT P6SM SCT040



Page loaded:  03:31 UTC  |   08:31 PM Pacific  |   09:31 PM Mountain  |   10:31 PM Central  |   11:31 PM Eastern

 

ADVISORIES

FORECASTS

FORECASTS

OBSERVATIONS

USER TOOLS

ABOUT US